Time;durP1;ratioP1;P1;durP2;ratioP2;P2;SDS_P1;SDS_P2;PMS_P1;PMS_P2;Temp;Humidity;BMP_temperature;BMP_pressure;BME280_temperature;BME280_humidity;BME280_pressure;Samples;Min_cycle;Max_cycle;Signal;HPM_P1;HPM_P2
2024/01/28 00:02:15;;;;;;;18.97;7.87;;;4.70;99.90;;;;;;7284672;19;20192;-76
2024/01/28 00:04:41;;;;;;;19.63;7.70;;;4.60;99.90;;;;;;7285127;19;20207;-76
2024/01/28 00:07:07;;;;;;;21.17;8.10;;;4.60;99.90;;;;;;7284740;19;20229;-76
2024/01/28 00:09:32;;;;;;;18.73;7.73;;;4.60;99.90;;;;;;7283064;19;20188;-76
2024/01/28 00:11:58;;;;;;;22.03;7.87;;;4.50;99.90;;;;;;7288007;19;20554;-73
2024/01/28 00:14:24;;;;;;;18.23;7.63;;;4.50;99.90;;;;;;7307559;19;20192;-76
2024/01/28 00:16:50;;;;;;;22.53;7.87;;;4.50;99.90;;;;;;7283246;19;20250;-77
2024/01/28 00:19:15;;;;;;;19.30;7.97;;;4.50;99.90;;;;;;7285307;19;20220;-77
2024/01/28 00:21:41;;;;;;;20.57;7.73;;;4.60;99.90;;;;;;7284779;19;20222;-77
2024/01/28 00:24:07;;;;;;;23.87;8.10;;;4.60;99.90;;;;;;7283899;19;20283;-77
2024/01/28 00:26:42;;;;;;;18.53;7.33;;;4.60;99.90;;;;;;7284594;19;20190;-76
2024/01/28 00:29:08;;;;;;;19.07;7.57;;;4.50;99.90;;;;;;7284399;19;20223;-77
2024/01/28 00:31:34;;;;;;;22.20;7.70;;;4.40;99.90;;;;;;7282849;19;20571;-74
2024/01/28 00:34:00;;;;;;;20.13;7.63;;;4.30;99.90;;;;;;7283830;19;20191;-74
2024/01/28 00:36:26;;;;;;;22.77;7.43;;;4.30;99.90;;;;;;7305793;19;20187;-74
2024/01/28 00:38:53;;;;;;;16.83;6.83;;;4.30;99.90;;;;;;7284063;19;20718;-77
2024/01/28 00:41:28;;;;;;;18.73;7.03;;;4.30;99.90;;;;;;7283634;19;20194;-75
2024/01/28 00:43:54;;;;;;;20.87;7.30;;;4.20;99.90;;;;;;7284241;19;20254;-75
2024/01/28 00:46:20;;;;;;;18.17;6.83;;;4.20;99.90;;;;;;7282827;19;20262;-75
2024/01/28 00:48:49;;;;;;;17.70;7.17;;;4.20;99.90;;;;;;7282588;19;20539;-75
2024/01/28 00:51:15;;;;;;;16.47;6.47;;;4.10;99.90;;;;;;7283450;19;20257;-75
2024/01/28 00:53:41;;;;;;;15.27;6.93;;;4.20;99.90;;;;;;7282396;19;20191;-74
2024/01/28 00:56:07;;;;;;;16.93;6.60;;;4.20;99.90;;;;;;7283807;19;20699;-76
2024/01/28 00:58:33;;;;;;;17.33;6.30;;;4.10;99.90;;;;;;7283124;19;20280;-74
2024/01/28 01:00:58;;;;;;;20.30;6.43;;;4.00;99.90;;;;;;7285342;19;20210;-74
2024/01/28 01:03:24;;;;;;;16.70;6.07;;;4.00;99.90;;;;;;7306907;19;20542;-75
2024/01/28 01:05:50;;;;;;;18.17;6.07;;;4.10;99.90;;;;;;7282406;19;20190;-75
2024/01/28 01:08:16;;;;;;;17.83;5.60;;;4.00;99.90;;;;;;7283061;19;20186;-75
2024/01/28 01:10:42;;;;;;;18.83;6.07;;;4.00;99.90;;;;;;7282702;19;20224;-75
2024/01/28 01:13:08;;;;;;;16.90;5.70;;;3.90;99.90;;;;;;7281708;19;20197;-75
2024/01/28 01:15:33;;;;;;;16.27;5.77;;;4.00;99.90;;;;;;7282326;19;20191;-75
2024/01/28 01:17:59;;;;;;;19.10;6.07;;;4.00;99.90;;;;;;7281787;19;20211;-75
2024/01/28 01:20:25;;;;;;;16.63;5.20;;;4.00;99.90;;;;;;7304657;19;20183;-76
2024/01/28 01:22:51;;;;;;;15.10;5.80;;;4.00;99.90;;;;;;7282792;19;20777;-75
2024/01/28 01:25:17;;;;;;;12.73;4.80;;;4.00;99.90;;;;;;7282085;19;20687;-75
2024/01/28 01:27:45;;;;;;;14.57;5.50;;;4.10;99.90;;;;;;7282050;19;20198;-75
2024/01/28 01:30:11;;;;;;;15.83;5.37;;;4.10;99.90;;;;;;7282608;19;20255;-75
2024/01/28 01:32:40;;;;;;;13.90;5.40;;;4.00;99.90;;;;;;7281539;19;20181;-75
2024/01/28 01:35:09;;;;;;;15.97;5.50;;;4.10;99.90;;;;;;7282786;19;20225;-75
2024/01/28 01:37:35;;;;;;;13.60;4.97;;;4.00;99.90;;;;;;7281398;19;20191;-76
2024/01/28 01:40:01;;;;;;;13.70;4.40;;;4.00;99.90;;;;;;7280663;19;20184;-75
2024/01/28 01:42:27;;;;;;;13.77;5.10;;;4.10;99.90;;;;;;7299684;19;20203;-74
2024/01/28 01:44:53;;;;;;;12.37;4.87;;;4.00;99.90;;;;;;7292972;19;20191;-74
2024/01/28 01:47:19;;;;;;;14.00;4.60;;;3.90;99.90;;;;;;7282975;19;20192;-75
2024/01/28 01:49:46;;;;;;;14.80;4.80;;;3.90;99.90;;;;;;7282049;19;20657;-74
2024/01/28 01:52:16;;;;;;;15.27;4.50;;;3.80;99.90;;;;;;7281914;19;20183;-74
2024/01/28 01:54:43;;;;;;;12.53;4.50;;;3.90;99.90;;;;;;7282523;19;20187;-75
2024/01/28 01:57:09;;;;;;;12.17;3.93;;;4.00;99.90;;;;;;7280577;19;20195;-75
2024/01/28 01:59:37;;;;;;;13.30;4.37;;;4.10;99.90;;;;;;7282819;19;20296;-74
2024/01/28 02:02:07;;;;;;;13.47;4.23;;;4.20;99.90;;;;;;7281471;19;20858;-75
2024/01/28 02:04:34;;;;;;;11.13;3.87;;;4.10;99.90;;;;;;7282632;19;20195;-75
2024/01/28 02:07:00;;;;;;;12.97;4.37;;;4.20;99.90;;;;;;7282270;19;20191;-74
2024/01/28 02:09:26;;;;;;;12.40;4.40;;;4.20;99.90;;;;;;7303312;19;20212;-75
2024/01/28 02:11:51;;;;;;;11.47;4.67;;;4.20;99.90;;;;;;7282511;19;20195;-76
2024/01/28 02:14:21;;;;;;;16.07;4.60;;;4.00;99.90;;;;;;7282352;19;20204;-74
2024/01/28 02:16:48;;;;;;;14.67;4.70;;;4.00;99.90;;;;;;7281252;19;20190;-75
2024/01/28 02:19:14;;;;;;;15.00;4.50;;;4.00;99.90;;;;;;7281529;19;20191;-74
2024/01/28 02:21:40;;;;;;;14.43;4.30;;;4.00;99.90;;;;;;7280842;19;20188;-75
2024/01/28 02:24:06;;;;;;;13.50;4.17;;;4.10;99.90;;;;;;7280832;19;20191;-75
2024/01/28 02:26:32;;;;;;;11.00;4.33;;;4.10;99.90;;;;;;7280481;19;20197;-75
2024/01/28 02:28:58;;;;;;;13.47;4.57;;;4.00;99.90;;;;;;7293735;19;20190;-75
2024/01/28 02:31:24;;;;;;;13.47;4.13;;;4.00;99.90;;;;;;7300458;19;20184;-75
2024/01/28 02:33:49;;;;;;;13.87;4.70;;;3.90;99.90;;;;;;7279156;19;20189;-75
2024/01/28 02:36:15;;;;;;;15.43;4.73;;;3.80;99.90;;;;;;7280992;19;21008;-75
2024/01/28 02:38:41;;;;;;;16.20;4.80;;;3.70;99.90;;;;;;7280091;19;20542;-74
2024/01/28 02:41:06;;;;;;;11.60;4.17;;;3.80;99.90;;;;;;7281582;19;20277;-75
2024/01/28 02:43:32;;;;;;;13.13;4.33;;;3.80;99.90;;;;;;7280112;19;20244;-75
2024/01/28 02:45:58;;;;;;;14.17;4.40;;;3.80;99.90;;;;;;7291388;19;20196;-74
2024/01/28 02:48:23;;;;;;;13.93;4.27;;;3.70;99.90;;;;;;7298013;19;20192;-75
2024/01/28 02:50:49;;;;;;;13.03;5.00;;;3.70;99.90;;;;;;7278886;19;20670;-75
2024/01/28 02:53:15;;;;;;;13.20;4.33;;;3.70;99.90;;;;;;7279841;19;20188;-76
2024/01/28 02:55:41;;;;;;;15.10;3.90;;;3.60;99.90;;;;;;7280027;19;20198;-76
2024/01/28 02:58:06;;;;;;;11.00;3.90;;;3.70;99.90;;;;;;7276894;19;20218;-76
2024/01/28 03:00:35;;;;;;;9.73;4.17;;;3.80;99.90;;;;;;7279121;19;20227;-76
2024/01/28 03:03:03;;;;;;;12.77;3.97;;;3.90;99.90;;;;;;7280507;19;20222;-75
2024/01/28 03:05:29;;;;;;;10.40;3.60;;;4.00;99.90;;;;;;7282956;19;20197;-76
2024/01/28 03:07:55;;;;;;;12.97;3.90;;;4.00;99.90;;;;;;7302781;19;20278;-75
2024/01/28 03:10:21;;;;;;;13.23;4.00;;;4.10;99.90;;;;;;7277808;19;20714;-76
2024/01/28 03:12:49;;;;;;;12.23;3.87;;;4.10;99.90;;;;;;7278217;19;20645;-75
2024/01/28 03:15:19;;;;;;;13.43;3.83;;;4.10;99.90;;;;;;7280108;19;20255;-76
2024/01/28 03:17:46;;;;;;;11.00;3.57;;;4.20;99.90;;;;;;7279415;19;20221;-75
2024/01/28 03:20:11;;;;;;;11.57;3.87;;;4.20;99.90;;;;;;7278457;19;20197;-75
2024/01/28 03:22:37;;;;;;;12.57;4.20;;;4.30;99.90;;;;;;7280549;19;20221;-76
2024/01/28 03:25:05;;;;;;;14.80;4.20;;;4.20;99.90;;;;;;7277791;19;20196;-75
2024/01/28 03:27:30;;;;;;;11.43;3.70;;;4.30;99.90;;;;;;7277720;19;20191;-76
2024/01/28 03:29:56;;;;;;;11.30;3.87;;;4.40;99.90;;;;;;7300088;19;20189;-76
2024/01/28 03:32:22;;;;;;;13.23;3.80;;;4.50;99.90;;;;;;7278290;19;20209;-75
2024/01/28 03:34:47;;;;;;;12.97;3.60;;;4.40;99.90;;;;;;7280181;19;20218;-75
2024/01/28 03:37:13;;;;;;;11.67;3.40;;;4.30;99.90;;;;;;7279144;19;20188;-76
2024/01/28 03:39:39;;;;;;;9.40;3.70;;;4.30;99.90;;;;;;7278884;19;20257;-75
2024/01/28 03:42:05;;;;;;;8.03;3.30;;;4.30;99.90;;;;;;7279421;19;20195;-76
2024/01/28 03:44:31;;;;;;;11.47;4.00;;;4.30;99.90;;;;;;7277995;19;20195;-74
2024/01/28 03:46:57;;;;;;;11.00;3.70;;;4.30;99.90;;;;;;7301164;19;20857;-75
2024/01/28 03:49:23;;;;;;;12.93;4.30;;;4.10;99.90;;;;;;7278176;19;20178;-74
2024/01/28 03:51:49;;;;;;;11.33;4.07;;;4.10;99.90;;;;;;7276573;19;20181;-75
2024/01/28 03:54:14;;;;;;;11.63;3.67;;;4.10;99.90;;;;;;7278057;19;20194;-75
2024/01/28 03:56:40;;;;;;;13.50;3.57;;;4.10;99.90;;;;;;7278023;19;20654;-75
2024/01/28 03:59:06;;;;;;;11.53;3.37;;;4.10;99.90;;;;;;7276505;19;20270;-75
2024/01/28 04:01:33;;;;;;;15.17;3.43;;;4.20;99.90;;;;;;7278035;19;20216;-75
2024/01/28 04:03:59;;;;;;;10.60;3.40;;;4.20;99.90;;;;;;7282287;19;20673;-74
2024/01/28 04:06:25;;;;;;;12.13;3.50;;;4.20;99.90;;;;;;7299226;19;20204;-75
2024/01/28 04:08:54;;;;;;;12.83;3.60;;;4.10;99.90;;;;;;7276956;19;20215;-75
2024/01/28 04:11:24;;;;;;;9.30;2.97;;;4.10;99.90;;;;;;7277350;19;20186;-75
2024/01/28 04:13:49;;;;;;;9.03;3.40;;;4.20;99.90;;;;;;7277067;19;20188;-75
2024/01/28 04:16:15;;;;;;;11.67;3.30;;;4.20;99.90;;;;;;7277535;19;20269;-74
2024/01/28 04:18:41;;;;;;;13.03;3.13;;;4.30;99.90;;;;;;7276335;19;20185;-75
2024/01/28 04:21:06;;;;;;;11.57;2.93;;;4.30;99.90;;;;;;7278790;19;20197;-75
2024/01/28 04:23:32;;;;;;;10.17;3.33;;;4.30;99.90;;;;;;7280342;19;20767;-75
2024/01/28 04:25:58;;;;;;;9.90;2.97;;;4.30;99.90;;;;;;7301295;19;20275;-75
2024/01/28 04:28:25;;;;;;;9.20;3.00;;;4.30;99.90;;;;;;7299324;19;20187;-75
2024/01/28 04:30:51;;;;;;;10.70;2.93;;;4.30;99.90;;;;;;7283162;19;20218;-74
2024/01/28 04:33:17;;;;;;;11.47;3.20;;;4.30;99.90;;;;;;7283720;19;20947;-75
2024/01/28 04:35:43;;;;;;;8.97;2.70;;;4.40;99.90;;;;;;7285398;19;20291;-75
2024/01/28 04:38:08;;;;;;;7.33;2.57;;;4.30;99.90;;;;;;7283812;19;20841;-75
2024/01/28 04:40:34;;;;;;;8.83;2.63;;;4.20;99.90;;;;;;7284109;19;20282;-75
2024/01/28 04:43:00;;;;;;;7.80;2.83;;;4.20;99.90;;;;;;7284550;19;20189;-74
2024/01/28 04:45:25;;;;;;;9.57;2.70;;;4.20;99.90;;;;;;7305975;19;20692;-75
2024/01/28 04:47:51;;;;;;;11.07;3.10;;;4.20;99.90;;;;;;7283628;19;20184;-76
2024/01/28 04:50:17;;;;;;;9.63;3.00;;;4.30;99.90;;;;;;7283105;19;20278;-75
2024/01/28 04:52:43;;;;;;;9.23;3.00;;;4.30;99.90;;;;;;7283895;19;20263;-75
2024/01/28 04:55:09;;;;;;;7.07;2.77;;;4.30;99.90;;;;;;7283090;19;20657;-75
2024/01/28 04:57:35;;;;;;;10.80;2.63;;;4.30;99.90;;;;;;7283738;19;20681;-74
2024/01/28 05:00:01;;;;;;;7.87;2.90;;;4.40;99.90;;;;;;7284236;19;20282;-75
2024/01/28 05:02:26;;;;;;;7.10;2.60;;;4.40;99.90;;;;;;7303933;19;20199;-76
2024/01/28 05:04:52;;;;;;;9.03;2.73;;;4.50;99.90;;;;;;7283093;19;20620;-75
2024/01/28 05:07:18;;;;;;;8.10;2.90;;;4.50;99.90;;;;;;7283376;19;20206;-75
2024/01/28 05:09:43;;;;;;;8.33;2.70;;;4.50;99.90;;;;;;7284420;19;20202;-75
2024/01/28 05:12:09;;;;;;;11.27;3.00;;;4.50;99.90;;;;;;7282784;19;20252;-75
2024/01/28 05:14:35;;;;;;;10.07;2.87;;;4.40;99.90;;;;;;7283016;19;20265;-75
2024/01/28 05:17:01;;;;;;;7.87;2.40;;;4.30;99.90;;;;;;7282105;19;20197;-75
2024/01/28 05:19:27;;;;;;;9.90;3.10;;;4.20;99.90;;;;;;7305229;19;20245;-75
2024/01/28 05:21:52;;;;;;;9.03;2.80;;;4.30;99.90;;;;;;7281553;19;20223;-75
2024/01/28 05:24:18;;;;;;;9.47;2.60;;;4.20;99.90;;;;;;7283179;19;20585;-76
2024/01/28 05:26:44;;;;;;;10.47;2.80;;;4.30;99.90;;;;;;7282003;19;20307;-77
2024/01/28 05:29:09;;;;;;;7.60;2.30;;;4.30;99.90;;;;;;7283702;19;20195;-76
2024/01/28 05:31:35;;;;;;;9.30;2.63;;;4.30;99.90;;;;;;7282354;19;20192;-76
2024/01/28 05:34:01;;;;;;;10.23;2.53;;;4.40;99.90;;;;;;7283585;19;20202;-76
2024/01/28 05:36:28;;;;;;;9.17;2.47;;;4.40;99.90;;;;;;7304482;19;20206;-76
2024/01/28 05:38:57;;;;;;;10.23;2.97;;;4.40;99.90;;;;;;7281731;19;20192;-76
2024/01/28 05:41:23;;;;;;;13.20;2.93;;;4.40;99.90;;;;;;7283266;19;20185;-76
2024/01/28 05:43:49;;;;;;;7.43;2.73;;;4.40;99.90;;;;;;7281922;19;20303;-77
2024/01/28 05:46:15;;;;;;;7.93;2.53;;;4.40;99.90;;;;;;7281149;19;20214;-76
2024/01/28 05:48:41;;;;;;;9.53;2.57;;;4.50;99.90;;;;;;7282606;19;20187;-76
2024/01/28 05:51:06;;;;;;;8.43;2.80;;;4.30;99.90;;;;;;7281953;19;20199;-77
2024/01/28 05:53:32;;;;;;;7.17;2.53;;;4.40;99.90;;;;;;7282390;19;21023;-77
2024/01/28 05:55:58;;;;;;;8.80;2.53;;;4.40;99.90;;;;;;7300702;19;20200;-76
2024/01/28 05:58:24;;;;;;;8.17;2.60;;;4.50;99.90;;;;;;7288891;19;20190;-76
2024/01/28 06:00:50;;;;;;;7.97;2.43;;;4.50;99.90;;;;;;7281242;19;20190;-77
2024/01/28 06:03:15;;;;;;;7.27;2.70;;;4.60;99.90;;;;;;7281471;19;20519;-76
2024/01/28 06:05:41;;;;;;;9.20;2.90;;;4.50;99.90;;;;;;7281469;19;20261;-76
2024/01/28 06:08:07;;;;;;;10.77;2.63;;;4.50;99.90;;;;;;7281231;19;20185;-76
2024/01/28 06:10:33;;;;;;;7.10;2.67;;;4.50;99.90;;;;;;7279735;19;20195;-76
2024/01/28 06:12:59;;;;;;;11.00;2.90;;;4.50;99.90;;;;;;7285540;19;20188;-76
2024/01/28 06:15:25;;;;;;;9.70;2.73;;;4.60;99.90;;;;;;7302599;19;20586;-76
2024/01/28 06:17:51;;;;;;;9.17;2.83;;;4.60;99.90;;;;;;7279294;19;20301;-76
2024/01/28 06:20:17;;;;;;;9.57;3.20;;;4.60;99.90;;;;;;7280878;19;20201;-76
2024/01/28 06:22:43;;;;;;;10.67;2.93;;;4.50;99.90;;;;;;7280371;19;20263;-76
2024/01/28 06:25:09;;;;;;;13.47;3.20;;;4.40;99.90;;;;;;7280801;19;20278;-76
2024/01/28 06:27:35;;;;;;;10.67;3.07;;;4.50;99.90;;;;;;7280329;19;20196;-81
2024/01/28 06:30:01;;;;;;;7.30;2.60;;;4.50;99.90;;;;;;7279712;19;21154;-77
2024/01/28 06:32:26;;;;;;;10.13;3.13;;;4.50;99.90;;;;;;7301207;19;20199;-76
2024/01/28 06:34:52;;;;;;;9.97;2.83;;;4.50;99.90;;;;;;7280581;19;20187;-77
2024/01/28 06:37:18;;;;;;;10.10;2.90;;;4.60;99.90;;;;;;7280835;19;20209;-77
2024/01/28 06:39:49;;;;;;;9.73;3.17;;;4.70;99.90;;;;;;7279992;19;20193;-76
2024/01/28 06:42:16;;;;;;;13.30;2.90;;;4.60;99.90;;;;;;7280037;19;20189;-76
2024/01/28 06:44:41;;;;;;;6.87;2.30;;;4.50;99.90;;;;;;7280225;19;20218;-76
2024/01/28 06:47:07;;;;;;;7.67;2.83;;;4.50;99.90;;;;;;7278293;19;20195;-76
2024/01/28 06:49:33;;;;;;;8.57;2.47;;;4.50;99.90;;;;;;7278169;19;20196;-77
2024/01/28 06:51:59;;;;;;;7.30;2.50;;;4.60;99.90;;;;;;7286941;19;20307;-75
2024/01/28 06:54:25;;;;;;;10.03;2.70;;;4.50;99.90;;;;;;7301671;19;20191;-74
2024/01/28 06:56:50;;;;;;;6.97;2.50;;;4.50;99.90;;;;;;7277979;19;20200;-75
2024/01/28 06:59:18;;;;;;;11.23;2.90;;;4.40;99.90;;;;;;7278391;19;20595;-75
2024/01/28 07:01:45;;;;;;;8.97;2.67;;;4.30;99.90;;;;;;7278892;19;20196;-75
2024/01/28 07:04:10;;;;;;;8.67;3.10;;;4.30;99.90;;;;;;7277934;19;20185;-74
2024/01/28 07:06:36;;;;;;;8.27;2.50;;;4.30;99.90;;;;;;7279218;19;20217;-75
2024/01/28 07:09:02;;;;;;;10.63;3.60;;;4.40;99.90;;;;;;7278887;19;20188;-75
2024/01/28 07:11:28;;;;;;;8.73;3.27;;;4.50;99.90;;;;;;7299964;19;20181;-74
2024/01/28 07:13:54;;;;;;;12.43;7.07;;;4.60;99.90;;;;;;7278971;19;20631;-74
2024/01/28 07:16:20;;;;;;;9.90;4.00;;;4.60;99.90;;;;;;7278150;19;20188;-75
2024/01/28 07:18:46;;;;;;;11.93;3.70;;;4.70;99.90;;;;;;7277203;19;20204;-74
2024/01/28 07:21:12;;;;;;;11.83;3.70;;;4.70;99.90;;;;;;7278550;19;20564;-74
2024/01/28 07:23:37;;;;;;;18.03;5.53;;;4.60;99.90;;;;;;7277027;19;20285;-74
2024/01/28 07:26:03;;;;;;;36.23;11.37;;;4.60;99.90;;;;;;7277124;19;20788;-75
2024/01/28 07:28:31;;;;;;;29.60;10.30;;;4.60;99.90;;;;;;7284288;19;20204;-74
2024/01/28 07:30:57;;;;;;;21.47;6.40;;;4.60;99.90;;;;;;7299750;19;20191;-74
2024/01/28 07:33:22;;;;;;;20.40;6.80;;;4.70;99.90;;;;;;7277729;19;20194;-74
2024/01/28 07:35:48;;;;;;;14.67;5.30;;;4.70;99.90;;;;;;7277911;19;20213;-75
2024/01/28 07:38:14;;;;;;;12.47;3.93;;;4.80;99.90;;;;;;7277161;19;20252;-74
2024/01/28 07:40:39;;;;;;;10.47;4.57;;;4.70;99.90;;;;;;7277392;19;20251;-75
2024/01/28 07:43:05;;;;;;;12.40;4.43;;;4.70;99.90;;;;;;7276255;19;20290;-76
2024/01/28 07:45:31;;;;;;;12.30;4.50;;;4.90;99.90;;;;;;7278433;19;20547;-74
2024/01/28 07:47:57;;;;;;;11.87;4.43;;;4.80;99.90;;;;;;7298984;19;20185;-75
2024/01/28 07:50:22;;;;;;;13.77;3.80;;;4.90;99.90;;;;;;7276621;19;20187;-75
2024/01/28 07:52:48;;;;;;;11.50;4.67;;;5.00;99.90;;;;;;7275927;19;20643;-75
2024/01/28 07:55:14;;;;;;;10.93;4.13;;;4.90;99.90;;;;;;7274893;19;20216;-75
2024/01/28 07:57:40;;;;;;;9.33;3.27;;;4.90;99.90;;;;;;7280211;19;20202;-74
2024/01/28 08:00:06;;;;;;;12.23;3.80;;;4.80;99.90;;;;;;7284301;19;20188;-75
2024/01/28 08:02:37;;;;;;;13.13;3.63;;;4.90;99.90;;;;;;7284574;19;20188;-75
2024/01/28 08:05:03;;;;;;;9.70;3.43;;;4.90;99.90;;;;;;7283841;19;20196;-75
2024/01/28 08:07:29;;;;;;;12.77;3.33;;;5.00;99.90;;;;;;7296461;19;20184;-76
2024/01/28 08:09:55;;;;;;;10.07;3.33;;;4.90;99.90;;;;;;7302060;19;20191;-75
2024/01/28 08:12:20;;;;;;;10.97;3.13;;;5.00;99.90;;;;;;7285378;19;20192;-75
2024/01/28 08:14:46;;;;;;;9.23;3.23;;;4.80;99.90;;;;;;7283117;19;20531;-76
2024/01/28 08:17:12;;;;;;;10.70;3.47;;;4.90;99.90;;;;;;7284677;19;20191;-76
2024/01/28 08:19:38;;;;;;;7.90;3.10;;;4.90;99.90;;;;;;7283951;19;20192;-75
2024/01/28 08:22:04;;;;;;;12.13;4.00;;;4.90;99.90;;;;;;7285055;19;20251;-76
2024/01/28 08:24:30;;;;;;;9.90;3.77;;;5.00;99.90;;;;;;7287946;19;20247;-76
2024/01/28 08:26:56;;;;;;;8.30;3.50;;;4.90;99.90;;;;;;7307856;19;20193;-76
2024/01/28 08:29:23;;;;;;;11.47;6.37;;;4.90;99.90;;;;;;7284671;19;20276;-75
2024/01/28 08:31:49;;;;;;;14.17;8.10;;;5.00;99.90;;;;;;7285640;19;20207;-75
2024/01/28 08:34:14;;;;;;;26.27;10.77;;;5.10;99.90;;;;;;7286299;19;20248;-75
2024/01/28 08:36:43;;;;;;;15.20;4.60;;;5.10;99.90;;;;;;7285079;19;20202;-74
2024/01/28 08:39:10;;;;;;;9.10;3.80;;;5.10;99.90;;;;;;7284793;19;20279;-75
2024/01/28 08:41:38;;;;;;;7.67;3.40;;;5.10;99.90;;;;;;7283133;19;20282;-75
2024/01/28 08:44:05;;;;;;;9.70;3.57;;;5.20;99.90;;;;;;7283218;19;20185;-77
2024/01/28 08:46:39;;;;;;;8.10;2.97;;;5.20;99.90;;;;;;7285098;19;20207;-74
2024/01/28 08:49:04;;;;;;;10.17;3.40;;;5.40;99.90;;;;;;7283134;19;20192;-75
2024/01/28 08:51:30;;;;;;;9.73;2.93;;;5.30;99.90;;;;;;7282166;19;20188;-76
2024/01/28 08:53:56;;;;;;;9.07;3.20;;;5.40;99.90;;;;;;7307099;19;20190;-76
2024/01/28 08:56:21;;;;;;;9.33;3.10;;;5.50;99.90;;;;;;7283908;19;20211;-75
2024/01/28 08:58:47;;;;;;;9.97;3.20;;;5.60;99.90;;;;;;7282706;19;20212;-76
2024/01/28 09:01:13;;;;;;;10.47;3.20;;;5.70;99.90;;;;;;7282804;19;20754;-75
2024/01/28 09:03:39;;;;;;;9.37;3.30;;;5.80;99.90;;;;;;7281121;19;20187;-75
2024/01/28 09:06:08;;;;;;;8.60;2.83;;;5.90;99.90;;;;;;7282276;19;20189;-75
2024/01/28 09:08:33;;;;;;;10.57;3.30;;;5.90;99.90;;;;;;7281119;19;20233;-75
2024/01/28 09:11:00;;;;;;;9.83;3.60;;;6.00;99.90;;;;;;7291452;19;20195;-75
2024/01/28 09:13:26;;;;;;;8.87;3.03;;;6.00;99.90;;;;;;7304251;19;20191;-74
2024/01/28 09:15:53;;;;;;;9.10;3.57;;;6.20;99.90;;;;;;7282094;19;20198;-75
2024/01/28 09:18:19;;;;;;;9.70;3.83;;;6.30;99.90;;;;;;7280319;19;20243;-75
2024/01/28 09:20:45;;;;;;;17.30;5.37;;;6.30;99.90;;;;;;7281793;19;20566;-76
2024/01/28 09:23:11;;;;;;;16.07;4.70;;;6.50;99.90;;;;;;7280719;19;20275;-75
2024/01/28 09:25:36;;;;;;;17.00;4.97;;;6.50;99.90;;;;;;7280805;19;20197;-75
2024/01/28 09:28:03;;;;;;;15.83;4.80;;;6.60;99.90;;;;;;7282271;19;20559;-74
2024/01/28 09:30:29;;;;;;;21.60;5.93;;;6.60;99.90;;;;;;7302305;19;20654;-74
2024/01/28 09:32:54;;;;;;;14.27;4.40;;;6.80;99.90;;;;;;7293601;19;20190;-75
2024/01/28 09:35:20;;;;;;;14.20;4.17;;;6.70;99.90;;;;;;7282368;19;20224;-75
2024/01/28 09:37:46;;;;;;;12.23;4.13;;;6.80;99.90;;;;;;7279293;19;20189;-75
2024/01/28 09:40:15;;;;;;;10.33;3.70;;;6.90;99.90;;;;;;7280718;19;20207;-75
2024/01/28 09:42:59;;;;;;;16.97;5.30;;;7.00;99.90;;;;;;7281732;19;20188;-74
2024/01/28 09:45:29;;;;;;;16.30;4.60;;;7.10;99.90;;;;;;7281501;19;20205;-75
2024/01/28 09:47:55;;;;;;;18.43;5.33;;;7.20;99.90;;;;;;7281348;19;20185;-75
2024/01/28 09:50:21;;;;;;;14.83;4.13;;;7.40;99.90;;;;;;7281074;19;20210;-75
2024/01/28 09:52:47;;;;;;;13.13;4.47;;;7.50;99.90;;;;;;7281085;19;20274;-75
2024/01/28 09:55:13;;;;;;;13.20;4.30;;;7.70;99.90;;;;;;7279341;19;20536;-75
2024/01/28 09:57:39;;;;;;;19.00;7.60;;;7.90;99.90;;;;;;7280355;19;20201;-75
2024/01/28 10:00:07;;;;;;;17.17;5.03;;;8.10;99.90;;;;;;7280185;19;20189;-75
2024/01/28 10:02:38;;;;;;;14.30;4.73;;;8.10;99.90;;;;;;7279947;19;20540;-75
2024/01/28 10:05:09;;;;;;;15.47;5.00;;;8.00;99.90;;;;;;7278649;19;20580;-74
2024/01/28 10:08:02;;;;;;;13.67;5.03;;;8.00;99.90;;;;;;7278597;19;20200;-74
2024/01/28 10:10:28;;;;;;;13.20;4.50;;;8.10;99.90;;;;;;7281018;19;20190;-75
2024/01/28 10:12:54;;;;;;;12.67;4.33;;;8.20;99.90;;;;;;7280034;19;20189;-75
2024/01/28 10:15:23;;;;;;;14.40;4.30;;;8.30;99.90;;;;;;7277586;19;20201;-75
2024/01/28 10:17:49;;;;;;;16.67;4.27;;;8.40;99.90;;;;;;7280555;19;20760;-75
2024/01/28 10:20:16;;;;;;;16.00;4.50;;;8.50;99.90;;;;;;7277191;19;20202;-76
2024/01/28 10:22:41;;;;;;;10.17;3.40;;;8.90;99.90;;;;;;7278616;19;20316;-75
2024/01/28 10:25:11;;;;;;;10.50;3.80;;;9.30;99.90;;;;;;7278889;19;20258;-76
2024/01/28 10:27:37;;;;;;;11.80;4.00;;;9.90;99.90;;;;;;7275747;19;20191;-75
2024/01/28 10:30:04;;;;;;;14.00;4.30;;;10.30;99.90;;;;;;7278667;19;20189;-76
2024/01/28 10:32:30;;;;;;;15.70;4.67;;;10.80;99.90;;;;;;7288434;19;20850;-76
2024/01/28 10:34:55;;;;;;;10.00;3.53;;;11.10;99.90;;;;;;7299798;19;20227;-75
2024/01/28 10:37:23;;;;;;;17.60;4.47;;;11.20;99.90;;;;;;7278172;19;20205;-76
2024/01/28 10:39:54;;;;;;;12.80;4.43;;;11.50;99.90;;;;;;7278638;19;20863;-75
2024/01/28 10:42:21;;;;;;;11.50;3.80;;;11.90;99.90;;;;;;7279309;19;20638;-75
2024/01/28 10:44:50;;;;;;;12.07;3.80;;;12.00;99.90;;;;;;7279356;19;20190;-76
2024/01/28 10:47:17;;;;;;;13.90;4.80;;;12.30;99.90;;;;;;7278732;19;20682;-76
2024/01/28 10:49:44;;;;;;;17.30;4.67;;;12.90;99.90;;;;;;7278888;19;20546;-75
2024/01/28 10:52:10;;;;;;;12.03;4.30;;;12.80;99.90;;;;;;7279038;19;20988;-76
2024/01/28 10:54:40;;;;;;;12.37;3.83;;;12.70;99.90;;;;;;7277148;19;20211;-76
2024/01/28 10:57:06;;;;;;;14.63;4.27;;;12.80;99.90;;;;;;7276711;19;20267;-76
2024/01/28 10:59:38;;;;;;;13.63;4.17;;;12.70;99.90;;;;;;7278292;19;20181;-75
2024/01/28 11:02:04;;;;;;;12.53;4.23;;;12.70;99.90;;;;;;7279163;19;20187;-76
2024/01/28 11:04:33;;;;;;;11.37;3.70;;;12.90;99.90;;;;;;7285573;19;20764;-76
2024/01/28 11:06:59;;;;;;;16.00;4.33;;;12.70;99.90;;;;;;7300221;19;20187;-74
2024/01/28 11:09:26;;;;;;;15.97;4.53;;;12.80;99.90;;;;;;7276345;19;20204;-74
2024/01/28 11:11:51;;;;;;;11.83;3.67;;;13.30;99.90;;;;;;7278563;19;20184;-75
2024/01/28 11:14:18;;;;;;;12.83;4.13;;;13.40;99.90;;;;;;7277085;19;20199;-75
2024/01/28 11:16:47;;;;;;;11.10;4.07;;;13.30;99.90;;;;;;7277635;19;20197;-75
2024/01/28 11:19:14;;;;;;;10.40;3.33;;;13.30;99.90;;;;;;7277960;19;20672;-76
2024/01/28 11:21:41;;;;;;;11.97;3.90;;;13.10;99.90;;;;;;7277593;19;20193;-75
2024/01/28 11:24:11;;;;;;;9.57;3.40;;;12.90;99.90;;;;;;7274675;19;20556;-75
2024/01/28 11:26:43;;;;;;;8.57;3.07;;;13.00;99.90;;;;;;7277119;19;20202;-74
2024/01/28 11:29:09;;;;;;;9.93;3.50;;;12.80;99.90;;;;;;7278820;19;20193;-75
2024/01/28 11:31:38;;;;;;;8.87;3.03;;;12.80;99.90;;;;;;7275642;19;20198;-75
2024/01/28 11:34:20;;;;;;;9.73;3.83;;;13.00;99.90;;;;;;7277951;19;20193;-75
2024/01/28 11:36:48;;;;;;;14.63;3.93;;;13.40;99.90;;;;;;7276403;19;20181;-77
2024/01/28 11:39:15;;;;;;;9.43;3.40;;;14.00;99.90;;;;;;7276790;19;20189;-75
2024/01/28 11:41:43;;;;;;;9.20;3.30;;;14.30;99.90;;;;;;7277700;19;20196;-75
2024/01/28 11:44:09;;;;;;;39.10;14.70;;;14.50;99.90;;;;;;7276915;19;20181;-76
2024/01/28 11:46:36;;;;;;;22.90;8.93;;;14.40;99.90;;;;;;7276745;19;20259;-75
2024/01/28 11:49:02;;;;;;;15.20;6.20;;;14.50;99.90;;;;;;7276941;19;20196;-75
2024/01/28 11:51:33;;;;;;;11.10;4.37;;;14.80;99.90;;;;;;7299438;19;20297;-77
2024/01/28 11:54:06;;;;;;;12.73;4.90;;;14.80;99.90;;;;;;7277900;19;20189;-75
2024/01/28 11:56:32;;;;;;;8.40;3.37;;;15.00;99.90;;;;;;7256476;19;20201;-75
2024/01/28 11:58:58;;;;;;;12.97;3.87;;;15.20;99.90;;;;;;7299425;19;20182;-75
2024/01/28 12:01:25;;;;;;;9.47;3.30;;;15.30;99.90;;;;;;7277571;19;20662;-76
2024/01/28 12:03:54;;;;;;;7.57;2.57;;;15.10;99.90;;;;;;7277866;19;20201;-75
2024/01/28 12:06:24;;;;;;;8.33;3.20;;;15.30;99.90;;;;;;7276764;19;20204;-75
2024/01/28 12:08:51;;;;;;;8.47;2.80;;;15.50;99.90;;;;;;7274109;19;20209;-75
2024/01/28 12:11:20;;;;;;;7.20;2.90;;;15.90;99.90;;;;;;7275186;19;20186;-75
2024/01/28 12:13:46;;;;;;;8.57;3.00;;;15.50;99.90;;;;;;7275709;19;20197;-75
2024/01/28 12:16:12;;;;;;;10.23;3.67;;;15.60;99.90;;;;;;7276452;19;20218;-75
2024/01/28 12:18:40;;;;;;;9.83;3.47;;;15.70;99.90;;;;;;7276297;19;20192;-75
2024/01/28 12:21:27;;;;;;;9.10;3.23;;;15.90;99.90;;;;;;7275964;19;20194;-75
2024/01/28 12:23:57;;;;;;;10.20;3.27;;;15.80;99.90;;;;;;7275536;19;20182;-76
2024/01/28 12:26:23;;;;;;;11.90;4.03;;;15.90;99.90;;;;;;7274986;19;20196;-77
2024/01/28 12:28:50;;;;;;;12.80;4.10;;;15.90;99.90;;;;;;7274910;19;20197;-76
2024/01/28 12:31:19;;;;;;;13.37;4.50;;;16.00;99.90;;;;;;7274123;19;20845;-76
2024/01/28 12:33:45;;;;;;;14.20;5.03;;;15.80;99.90;;;;;;7275155;19;20191;-76
2024/01/28 12:36:11;;;;;;;10.73;4.90;;;15.40;99.90;;;;;;7274844;19;20191;-75
2024/01/28 12:38:38;;;;;;;12.93;4.77;;;15.50;99.90;;;;;;7274718;19;20246;-74
2024/01/28 12:41:05;;;;;;;14.67;4.10;;;15.80;99.90;;;;;;7273246;19;20185;-76
2024/01/28 12:43:31;;;;;;;13.90;4.97;;;16.00;99.90;;;;;;7281431;19;20208;-75
2024/01/28 12:45:57;;;;;;;13.83;5.00;;;16.20;99.90;;;;;;7304417;19;20645;-76